sensor_id;sensor_type;location;lat;lon;timestamp;pressure;altitude;pressure_sealevel;temperature;humidity
24486;BME280;13449;49.374;8.584;2023-04-01T00:01:32;99096.34;;;10.06;100.00
24486;BME280;13449;49.374;8.584;2023-04-01T00:03:58;99098.81;;;10.01;100.00
24486;BME280;13449;49.374;8.584;2023-04-01T00:06:28;99092.53;;;10.02;100.00
24486;BME280;13449;49.374;8.584;2023-04-01T00:08:54;99089.69;;;10.03;100.00
24486;BME280;13449;49.374;8.584;2023-04-01T00:11:21;99094.13;;;10.10;100.00
24486;BME280;13449;49.374;8.584;2023-04-01T00:13:53;99087.44;;;10.14;100.00
24486;BME280;13449;49.374;8.584;2023-04-01T00:16:19;99089.09;;;10.01;100.00
24486;BME280;13449;49.374;8.584;2023-04-01T00:18:50;99089.50;;;9.98;100.00
24486;BME280;13449;49.374;8.584;2023-04-01T00:21:18;99087.28;;;10.02;100.00
24486;BME280;13449;49.374;8.584;2023-04-01T00:23:49;99095.94;;;10.09;100.00
24486;BME280;13449;49.374;8.584;2023-04-01T00:26:16;99084.81;;;10.07;100.00
24486;BME280;13449;49.374;8.584;2023-04-01T00:28:45;99088.47;;;10.06;100.00
24486;BME280;13449;49.374;8.584;2023-04-01T00:31:14;99084.22;;;10.12;100.00
24486;BME280;13449;49.374;8.584;2023-04-01T00:33:43;99094.09;;;10.16;100.00
24486;BME280;13449;49.374;8.584;2023-04-01T00:36:15;99085.03;;;10.05;100.00
24486;BME280;13449;49.374;8.584;2023-04-01T00:38:45;99087.25;;;10.15;100.00
24486;BME280;13449;49.374;8.584;2023-04-01T00:41:14;99094.53;;;10.06;100.00
24486;BME280;13449;49.374;8.584;2023-04-01T00:43:43;99097.38;;;10.05;100.00
24486;BME280;13449;49.374;8.584;2023-04-01T00:46:16;99095.31;;;10.14;100.00
24486;BME280;13449;49.374;8.584;2023-04-01T00:48:48;99097.19;;;10.00;100.00
24486;BME280;13449;49.374;8.584;2023-04-01T00:51:20;99098.81;;;10.07;100.00
24486;BME280;13449;49.374;8.584;2023-04-01T00:53:52;99090.06;;;10.07;100.00
24486;BME280;13449;49.374;8.584;2023-04-01T00:56:24;99097.97;;;10.07;100.00
24486;BME280;13449;49.374;8.584;2023-04-01T00:59:02;99087.03;;;10.03;100.00
24486;BME280;13449;49.374;8.584;2023-04-01T01:01:30;99088.69;;;10.04;100.00
24486;BME280;13449;49.374;8.584;2023-04-01T01:03:57;99089.28;;;10.00;100.00
24486;BME280;13449;49.374;8.584;2023-04-01T01:09:05;99083.00;;;10.07;100.00
24486;BME280;13449;49.374;8.584;2023-04-01T01:11:41;99076.09;;;10.13;100.00
24486;BME280;13449;49.374;8.584;2023-04-01T01:14:17;99070.66;;;10.08;100.00
24486;BME280;13449;49.374;8.584;2023-04-01T01:16:53;99073.47;;;10.06;100.00
24486;BME280;13449;49.374;8.584;2023-04-01T01:22:38;99062.13;;;10.13;100.00
24486;BME280;13449;49.374;8.584;2023-04-01T01:25:29;99063.13;;;10.18;100.00
24486;BME280;13449;49.374;8.584;2023-04-01T01:33:39;99055.47;;;10.10;100.00
24486;BME280;13449;49.374;8.584;2023-04-01T01:36:12;99051.63;;;10.06;100.00
24486;BME280;13449;49.374;8.584;2023-04-01T01:38:40;99053.03;;;10.09;100.00
24486;BME280;13449;49.374;8.584;2023-04-01T01:41:07;99057.69;;;10.06;100.00
24486;BME280;13449;49.374;8.584;2023-04-01T01:43:40;99045.13;;;10.15;100.00
24486;BME280;13449;49.374;8.584;2023-04-01T01:46:14;99047.16;;;10.13;100.00
24486;BME280;13449;49.374;8.584;2023-04-01T01:48:43;99048.34;;;10.31;100.00
24486;BME280;13449;49.374;8.584;2023-04-01T01:51:11;99044.50;;;10.20;100.00
24486;BME280;13449;49.374;8.584;2023-04-01T01:53:38;99047.53;;;10.30;100.00
24486;BME280;13449;49.374;8.584;2023-04-01T01:56:07;99046.31;;;10.33;100.00
24486;BME280;13449;49.374;8.584;2023-04-01T01:58:58;99044.91;;;10.17;100.00
24486;BME280;13449;49.374;8.584;2023-04-01T02:01:28;99038.81;;;10.23;100.00
24486;BME280;13449;49.374;8.584;2023-04-01T02:03:59;99041.47;;;10.29;100.00
24486;BME280;13449;49.374;8.584;2023-04-01T02:06:32;99047.34;;;10.32;100.00
24486;BME280;13449;49.374;8.584;2023-04-01T02:09:02;99036.81;;;10.32;100.00
24486;BME280;13449;49.374;8.584;2023-04-01T02:14:10;99045.06;;;10.42;100.00
24486;BME280;13449;49.374;8.584;2023-04-01T02:19:16;99042.69;;;10.34;100.00
24486;BME280;13449;49.374;8.584;2023-04-01T02:22:09;99043.69;;;10.33;100.00
24486;BME280;13449;49.374;8.584;2023-04-01T02:24:40;99041.44;;;10.36;100.00
24486;BME280;13449;49.374;8.584;2023-04-01T02:27:09;99043.25;;;10.36;100.00
24486;BME280;13449;49.374;8.584;2023-04-01T02:29:39;99043.91;;;10.31;100.00
24486;BME280;13449;49.374;8.584;2023-04-01T02:32:06;99054.41;;;10.38;100.00
24486;BME280;13449;49.374;8.584;2023-04-01T02:34:33;99046.91;;;10.35;100.00
24486;BME280;13449;49.374;8.584;2023-04-01T02:37:00;99049.53;;;10.41;100.00
24486;BME280;13449;49.374;8.584;2023-04-01T02:39:27;99051.97;;;10.36;100.00
24486;BME280;13449;49.374;8.584;2023-04-01T02:41:53;99040.22;;;10.39;100.00
24486;BME280;13449;49.374;8.584;2023-04-01T02:44:20;99050.78;;;10.32;100.00
24486;BME280;13449;49.374;8.584;2023-04-01T02:46:46;99046.13;;;10.34;100.00
24486;BME280;13449;49.374;8.584;2023-04-01T02:49:13;99053.19;;;10.40;100.00
24486;BME280;13449;49.374;8.584;2023-04-01T02:51:39;99048.53;;;10.36;100.00
24486;BME280;13449;49.374;8.584;2023-04-01T02:54:08;99052.75;;;10.43;100.00
24486;BME280;13449;49.374;8.584;2023-04-01T02:56:37;99038.22;;;10.34;100.00
24486;BME280;13449;49.374;8.584;2023-04-01T02:59:03;99046.63;;;10.49;100.00
24486;BME280;13449;49.374;8.584;2023-04-01T03:01:30;99049.75;;;10.33;100.00
24486;BME280;13449;49.374;8.584;2023-04-01T03:03:57;99045.72;;;10.24;100.00
24486;BME280;13449;49.374;8.584;2023-04-01T03:06:23;99048.78;;;10.27;100.00
24486;BME280;13449;49.374;8.584;2023-04-01T03:08:52;99046.69;;;10.36;100.00
24486;BME280;13449;49.374;8.584;2023-04-01T03:11:21;99053.81;;;10.29;100.00
24486;BME280;13449;49.374;8.584;2023-04-01T03:13:48;99047.75;;;10.28;100.00
24486;BME280;13449;49.374;8.584;2023-04-01T03:16:15;99051.16;;;10.36;100.00
24486;BME280;13449;49.374;8.584;2023-04-01T03:18:41;99049.13;;;10.38;100.00
24486;BME280;13449;49.374;8.584;2023-04-01T03:21:20;99047.09;;;10.33;100.00
24486;BME280;13449;49.374;8.584;2023-04-01T03:23:47;99047.53;;;10.30;100.00
24486;BME280;13449;49.374;8.584;2023-04-01T03:26:14;99047.09;;;10.33;100.00
24486;BME280;13449;49.374;8.584;2023-04-01T03:28:41;99047.31;;;10.38;100.00
24486;BME280;13449;49.374;8.584;2023-04-01T03:31:07;99042.25;;;10.23;100.00
24486;BME280;13449;49.374;8.584;2023-04-01T03:33:34;99044.47;;;10.33;100.00
24486;BME280;13449;49.374;8.584;2023-04-01T03:36:00;99048.34;;;10.31;100.00
24486;BME280;13449;49.374;8.584;2023-04-01T03:38:27;99040.63;;;10.36;100.00
24486;BME280;13449;49.374;8.584;2023-04-01T03:40:53;99048.34;;;10.31;100.00
24486;BME280;13449;49.374;8.584;2023-04-01T03:43:20;99039.41;;;10.38;100.00
24486;BME280;13449;49.374;8.584;2023-04-01T03:45:49;99047.91;;;10.40;100.00
24486;BME280;13449;49.374;8.584;2023-04-01T03:48:16;99050.97;;;10.24;100.00
24486;BME280;13449;49.374;8.584;2023-04-01T03:50:43;99043.25;;;10.36;100.00
24486;BME280;13449;49.374;8.584;2023-04-01T03:53:10;99050.97;;;10.37;100.00
24486;BME280;13449;49.374;8.584;2023-04-01T03:55:37;99053.56;;;10.44;100.00
24486;BME280;13449;49.374;8.584;2023-04-01T03:58:05;99053.56;;;10.44;100.00
24486;BME280;13449;49.374;8.584;2023-04-01T04:00:32;99065.50;;;10.46;100.00
24486;BME280;13449;49.374;8.584;2023-04-01T04:02:59;99067.72;;;10.43;100.00
24486;BME280;13449;49.374;8.584;2023-04-01T04:05:26;99060.81;;;10.48;100.00
24486;BME280;13449;49.374;8.584;2023-04-01T04:07:53;99056.16;;;10.50;100.00
24486;BME280;13449;49.374;8.584;2023-04-01T04:10:20;99052.50;;;10.51;100.00
24486;BME280;13449;49.374;8.584;2023-04-01T04:12:49;99049.34;;;10.29;100.00
24486;BME280;13449;49.374;8.584;2023-04-01T04:15:16;99053.13;;;10.53;100.00
24486;BME280;13449;49.374;8.584;2023-04-01T04:17:47;99054.44;;;10.31;100.00
24486;BME280;13449;49.374;8.584;2023-04-01T04:20:17;99053.41;;;10.25;100.00
24486;BME280;13449;49.374;8.584;2023-04-01T04:22:45;99057.91;;;10.12;100.00
24486;BME280;13449;49.374;8.584;2023-04-01T04:25:12;99062.34;;;10.11;100.00
24486;BME280;13449;49.374;8.584;2023-04-01T04:27:39;99061.97;;;10.07;100.00
24486;BME280;13449;49.374;8.584;2023-04-01T04:30:06;99062.56;;;10.03;100.00
24486;BME280;13449;49.374;8.584;2023-04-01T04:32:33;99052.66;;;10.05;100.00
24486;BME280;13449;49.374;8.584;2023-04-01T04:35:04;99062.19;;;9.86;100.00
24486;BME280;13449;49.374;8.584;2023-04-01T04:37:32;99063.63;;;9.89;100.00
24486;BME280;13449;49.374;8.584;2023-04-01T04:39:58;99054.50;;;9.91;100.00
24486;BME280;13449;49.374;8.584;2023-04-01T04:42:25;99055.75;;;9.82;100.00
24486;BME280;13449;49.374;8.584;2023-04-01T04:44:51;99045.03;;;9.57;100.00
24486;BME280;13449;49.374;8.584;2023-04-01T04:47:18;99053.53;;;9.66;100.00
24486;BME280;13449;49.374;8.584;2023-04-01T04:49:47;99044.81;;;9.58;100.00
24486;BME280;13449;49.374;8.584;2023-04-01T04:52:13;99050.50;;;9.69;100.00
24486;BME280;13449;49.374;8.584;2023-04-01T04:54:43;99054.94;;;9.48;100.00
24486;BME280;13449;49.374;8.584;2023-04-01T04:57:09;99048.69;;;9.56;100.00
24486;BME280;13449;49.374;8.584;2023-04-01T04:59:36;99042.22;;;9.65;100.00
24486;BME280;13449;49.374;8.584;2023-04-01T05:02:03;99041.59;;;9.63;100.00
24486;BME280;13449;49.374;8.584;2023-04-01T05:04:34;99030.28;;;9.63;100.00
24486;BME280;13449;49.374;8.584;2023-04-01T05:07:00;99046.47;;;9.53;100.00
24486;BME280;13449;49.374;8.584;2023-04-01T05:09:27;99033.91;;;9.62;100.00
24486;BME280;13449;49.374;8.584;2023-04-01T05:11:53;99041.38;;;9.65;100.00
24486;BME280;13449;49.374;8.584;2023-04-01T05:14:19;99042.00;;;9.60;100.00
24486;BME280;13449;49.374;8.584;2023-04-01T05:16:46;99037.34;;;9.69;100.00
24486;BME280;13449;49.374;8.584;2023-04-01T05:19:12;99040.00;;;9.62;100.00
24486;BME280;13449;49.374;8.584;2023-04-01T05:21:39;99040.41;;;9.52;100.00
24486;BME280;13449;49.374;8.584;2023-04-01T05:24:08;99042.19;;;9.58;100.00
24486;BME280;13449;49.374;8.584;2023-04-01T05:26:35;99038.56;;;9.73;100.00
24486;BME280;13449;49.374;8.584;2023-04-01T05:29:04;99039.78;;;9.57;100.00
24486;BME280;13449;49.374;8.584;2023-04-01T05:31:31;99041.78;;;9.62;100.00
24486;BME280;13449;49.374;8.584;2023-04-01T05:33:58;99039.78;;;9.57;100.00
24486;BME280;13449;49.374;8.584;2023-04-01T05:36:24;99045.44;;;9.60;100.00
24486;BME280;13449;49.374;8.584;2023-04-01T05:38:54;99045.44;;;9.67;100.00
24486;BME280;13449;49.374;8.584;2023-04-01T05:41:21;99040.59;;;9.57;100.00
24486;BME280;13449;49.374;8.584;2023-04-01T05:43:47;99042.19;;;9.58;100.00
24486;BME280;13449;49.374;8.584;2023-04-01T05:46:14;99033.69;;;9.70;100.00
24486;BME280;13449;49.374;8.584;2023-04-01T05:48:43;99030.69;;;9.66;100.00
24486;BME280;13449;49.374;8.584;2023-04-01T05:51:13;99038.16;;;9.63;100.00
24486;BME280;13449;49.374;8.584;2023-04-01T05:53:42;99038.16;;;9.76;100.00
24486;BME280;13449;49.374;8.584;2023-04-01T05:56:09;99026.00;;;9.68;100.00
24486;BME280;13449;49.374;8.584;2023-04-01T05:58:36;99028.63;;;9.68;100.00
24486;BME280;13449;49.374;8.584;2023-04-01T06:01:09;99032.09;;;9.75;100.00
24486;BME280;13449;49.374;8.584;2023-04-01T06:03:41;99026.00;;;9.88;100.00
24486;BME280;13449;49.374;8.584;2023-04-01T06:06:22;99030.41;;;9.88;100.00
24486;BME280;13449;49.374;8.584;2023-04-01T06:08:53;99023.94;;;9.90;100.00
24486;BME280;13449;49.374;8.584;2023-04-01T06:11:39;99018.13;;;9.81;100.00
24486;BME280;13449;49.374;8.584;2023-04-01T06:14:31;99029.38;;;10.09;100.00
24486;BME280;13449;49.374;8.584;2023-04-01T06:22:35;99016.34;;;10.20;100.00
24486;BME280;13449;49.374;8.584;2023-04-01T06:36:05;99017.22;;;10.14;100.00
24486;BME280;13449;49.374;8.584;2023-04-01T06:39:25;99029.53;;;10.14;100.00
24486;BME280;13449;49.374;8.584;2023-04-01T06:48:35;99024.28;;;10.14;100.00
24486;BME280;13449;49.374;8.584;2023-04-01T06:53:54;99022.88;;;10.11;100.00
24486;BME280;13449;49.374;8.584;2023-04-01T06:56:27;99028.97;;;10.05;100.00
24486;BME280;13449;49.374;8.584;2023-04-01T06:59:15;99024.94;;;9.96;100.00
24486;BME280;13449;49.374;8.584;2023-04-01T07:04:57;99029.63;;;9.87;100.00
24486;BME280;13449;49.374;8.584;2023-04-01T07:10:05;99029.63;;;9.80;100.00
24486;BME280;13449;49.374;8.584;2023-04-01T07:12:44;99021.94;;;9.92;100.00
24486;BME280;13449;49.374;8.584;2023-04-01T07:15:29;99025.59;;;9.91;100.00
24486;BME280;13449;49.374;8.584;2023-04-01T07:18:12;99032.03;;;10.02;100.00
24486;BME280;13449;49.374;8.584;2023-04-01T07:20:46;99027.78;;;9.88;100.00
24486;BME280;13449;49.374;8.584;2023-04-01T07:23:21;99028.41;;;9.90;100.00
24486;BME280;13449;49.374;8.584;2023-04-01T07:25:53;99036.91;;;9.92;100.00
24486;BME280;13449;49.374;8.584;2023-04-01T07:28:22;99043.19;;;9.84;100.00
24486;BME280;13449;49.374;8.584;2023-04-01T07:36:35;99041.78;;;9.81;100.00
24486;BME280;13449;49.374;8.584;2023-04-01T07:39:11;99041.19;;;9.73;100.00
24486;BME280;13449;49.374;8.584;2023-04-01T07:42:01;99043.81;;;9.79;100.00
24486;BME280;13449;49.374;8.584;2023-04-01T07:45:04;99044.81;;;9.85;100.00
24486;BME280;13449;49.374;8.584;2023-04-01T07:47:47;99045.75;;;10.04;100.00
24486;BME280;13449;49.374;8.584;2023-04-01T08:06:37;99042.50;;;10.15;100.00
24486;BME280;13449;49.374;8.584;2023-04-01T08:09:16;99050.59;;;10.27;100.00
24486;BME280;13449;49.374;8.584;2023-04-01T08:14:21;99044.44;;;10.46;100.00
24486;BME280;13449;49.374;8.584;2023-04-01T08:17:28;99045.50;;;10.25;100.00
24486;BME280;13449;49.374;8.584;2023-04-01T08:20:12;99051.88;;;10.56;100.00
24486;BME280;13449;49.374;8.584;2023-04-01T08:23:26;99051.69;;;10.58;100.00
24486;BME280;13449;49.374;8.584;2023-04-01T08:26:02;99041.91;;;10.65;100.00
24486;BME280;13449;49.374;8.584;2023-04-01T08:29:20;99043.31;;;11.06;100.00
24486;BME280;13449;49.374;8.584;2023-04-01T08:34:24;99049.38;;;11.06;100.00
24486;BME280;13449;49.374;8.584;2023-04-01T08:36:58;99051.91;;;10.88;100.00
24486;BME280;13449;49.374;8.584;2023-04-01T08:39:33;99057.78;;;10.90;100.00
24486;BME280;13449;49.374;8.584;2023-04-01T08:47:54;99048.38;;;10.69;100.00
24486;BME280;13449;49.374;8.584;2023-04-01T08:53:18;99052.03;;;10.68;100.00
24486;BME280;13449;49.374;8.584;2023-04-01T09:01:51;99061.50;;;10.82;100.00
24486;BME280;13449;49.374;8.584;2023-04-01T09:04:39;99063.34;;;10.75;100.00
24486;BME280;13449;49.374;8.584;2023-04-01T09:15:30;99068.72;;;10.93;100.00
24486;BME280;13449;49.374;8.584;2023-04-01T09:20:52;99072.19;;;11.19;100.00
24486;BME280;13449;49.374;8.584;2023-04-01T09:39:34;99069.47;;;11.00;100.00
24486;BME280;13449;49.374;8.584;2023-04-01T09:48:09;99080.19;;;11.06;100.00
24486;BME280;13449;49.374;8.584;2023-04-01T09:50:57;99076.81;;;10.98;100.00
24486;BME280;13449;49.374;8.584;2023-04-01T09:59:01;99093.94;;;11.08;100.00
24486;BME280;13449;49.374;8.584;2023-04-01T10:25:26;99097.50;;;10.88;100.00
24486;BME280;13449;49.374;8.584;2023-04-01T10:28:25;99098.47;;;11.00;100.00
24486;BME280;13449;49.374;8.584;2023-04-01T10:31:05;99100.22;;;11.13;100.00
24486;BME280;13449;49.374;8.584;2023-04-01T10:33:54;99101.44;;;11.11;100.00
24486;BME280;13449;49.374;8.584;2023-04-01T10:36:43;99102.94;;;11.00;100.00
24486;BME280;13449;49.374;8.584;2023-04-01T10:48:22;99110.72;;;11.20;100.00
24486;BME280;13449;49.374;8.584;2023-04-01T10:53:45;99095.53;;;11.15;100.00
24486;BME280;13449;49.374;8.584;2023-04-01T11:22:24;99119.69;;;11.12;100.00
24486;BME280;13449;49.374;8.584;2023-04-01T11:25:29;99123.94;;;11.13;100.00
24486;BME280;13449;49.374;8.584;2023-04-01T11:33:53;99122.66;;;11.22;100.00
24486;BME280;13449;49.374;8.584;2023-04-01T11:39:20;99125.16;;;11.11;100.00
24486;BME280;13449;49.374;8.584;2023-04-01T11:42:07;99126.94;;;11.17;100.00
24486;BME280;13449;49.374;8.584;2023-04-01T11:44:40;99122.06;;;11.20;100.00
24486;BME280;13449;49.374;8.584;2023-04-01T11:47:37;99129.16;;;11.20;100.00
24486;BME280;13449;49.374;8.584;2023-04-01T11:52:58;99131.38;;;11.23;100.00
24486;BME280;13449;49.374;8.584;2023-04-01T12:04:05;99139.75;;;11.45;100.00
24486;BME280;13449;49.374;8.584;2023-04-01T12:14:16;99152.28;;;11.50;100.00
24486;BME280;13449;49.374;8.584;2023-04-01T12:16:51;99138.06;;;11.57;100.00
24486;BME280;13449;49.374;8.584;2023-04-01T12:19:45;99137.22;;;11.57;100.00
24486;BME280;13449;49.374;8.584;2023-04-01T12:22:27;99139.19;;;11.68;100.00
24486;BME280;13449;49.374;8.584;2023-04-01T12:25:04;99148.44;;;11.77;100.00
24486;BME280;13449;49.374;8.584;2023-04-01T12:27:45;99144.03;;;11.71;100.00
24486;BME280;13449;49.374;8.584;2023-04-01T12:36:17;99147.91;;;11.68;100.00
24486;BME280;13449;49.374;8.584;2023-04-01T12:42:07;99145.75;;;11.59;100.00
24486;BME280;13449;49.374;8.584;2023-04-01T12:44:41;99147.41;;;11.78;100.00
24486;BME280;13449;49.374;8.584;2023-04-01T12:53:14;99140.88;;;12.12;100.00
24486;BME280;13449;49.374;8.584;2023-04-01T12:55:45;99151.84;;;12.09;100.00
24486;BME280;13449;49.374;8.584;2023-04-01T13:06:46;99157.16;;;12.28;100.00
24486;BME280;13449;49.374;8.584;2023-04-01T13:12:30;99167.25;;;12.12;100.00
24486;BME280;13449;49.374;8.584;2023-04-01T13:15:10;99167.69;;;11.84;100.00
24486;BME280;13449;49.374;8.584;2023-04-01T13:21:03;99169.50;;;11.84;100.00
24486;BME280;13449;49.374;8.584;2023-04-01T13:29:39;99175.38;;;12.11;100.00
24486;BME280;13449;49.374;8.584;2023-04-01T13:37:46;99188.94;;;11.96;100.00
24486;BME280;13449;49.374;8.584;2023-04-01T13:40:36;99185.84;;;11.99;100.00
24486;BME280;13449;49.374;8.584;2023-04-01T13:43:26;99191.66;;;12.08;100.00
24486;BME280;13449;49.374;8.584;2023-04-01T13:46:21;99193.31;;;12.02;100.00
24486;BME280;13449;49.374;8.584;2023-04-01T13:52:03;99195.97;;;12.02;100.00
24486;BME280;13449;49.374;8.584;2023-04-01T14:06:18;99214.28;;;12.22;100.00
24486;BME280;13449;49.374;8.584;2023-04-01T14:09:09;99211.00;;;12.27;100.00
24486;BME280;13449;49.374;8.584;2023-04-01T14:15:03;99213.47;;;11.97;100.00
24486;BME280;13449;49.374;8.584;2023-04-01T14:18:09;99212.28;;;11.92;100.00
24486;BME280;13449;49.374;8.584;2023-04-01T14:29:21;99216.88;;;12.04;100.00
24486;BME280;13449;49.374;8.584;2023-04-01T14:43:03;99225.22;;;11.69;100.00
24486;BME280;13449;49.374;8.584;2023-04-01T14:51:16;99235.25;;;11.54;100.00
24486;BME280;13449;49.374;8.584;2023-04-01T14:53:56;99240.28;;;11.62;100.00
24486;BME280;13449;49.374;8.584;2023-04-01T14:59:39;99244.84;;;11.73;100.00
24486;BME280;13449;49.374;8.584;2023-04-01T15:07:55;99246.63;;;11.54;100.00
24486;BME280;13449;49.374;8.584;2023-04-01T15:10:37;99250.63;;;11.57;100.00
24486;BME280;13449;49.374;8.584;2023-04-01T15:13:13;99240.28;;;11.62;100.00
24486;BME280;13449;49.374;8.584;2023-04-01T15:18:44;99254.06;;;11.64;100.00
24486;BME280;13449;49.374;8.584;2023-04-01T15:24:25;99256.13;;;11.55;100.00
24486;BME280;13449;49.374;8.584;2023-04-01T15:32:45;99255.13;;;11.50;100.00
24486;BME280;13449;49.374;8.584;2023-04-01T15:38:49;99256.13;;;11.55;100.00
24486;BME280;13449;49.374;8.584;2023-04-01T15:43:55;99259.16;;;11.59;100.00
24486;BME280;13449;49.374;8.584;2023-04-01T15:46:50;99261.59;;;11.60;100.00
24486;BME280;13449;49.374;8.584;2023-04-01T15:55:19;99270.13;;;11.56;100.00
24486;BME280;13449;49.374;8.584;2023-04-01T16:09:02;99268.91;;;11.58;100.00
24486;BME280;13449;49.374;8.584;2023-04-01T16:11:49;99270.72;;;11.58;100.00
24486;BME280;13449;49.374;8.584;2023-04-01T16:20:16;99290.13;;;11.77;100.00
24486;BME280;13449;49.374;8.584;2023-04-01T16:22:49;99292.56;;;11.72;100.00
24486;BME280;13449;49.374;8.584;2023-04-01T16:25:54;99301.53;;;11.64;100.00
24486;BME280;13449;49.374;8.584;2023-04-01T16:32:29;99299.19;;;11.42;100.00
24486;BME280;13449;49.374;8.584;2023-04-01T16:34:39;99304.44;;;11.49;100.00
24486;BME280;13449;49.374;8.584;2023-04-01T16:37:19;99302.22;;;11.46;100.00
24486;BME280;13449;49.374;8.584;2023-04-01T16:40:12;99308.56;;;11.38;100.00
24486;BME280;13449;49.374;8.584;2023-04-01T16:42:55;99309.13;;;11.40;100.00
24486;BME280;13449;49.374;8.584;2023-04-01T16:48:15;99315.22;;;11.48;100.00
24486;BME280;13449;49.374;8.584;2023-04-01T16:55:55;99324.16;;;11.40;100.00
24486;BME280;13449;49.374;8.584;2023-04-01T16:58:59;99332.88;;;11.40;100.00
24486;BME280;13449;49.374;8.584;2023-04-01T17:04:23;99341.84;;;11.33;100.00
24486;BME280;13449;49.374;8.584;2023-04-01T17:12:33;99351.59;;;11.19;100.00
24486;BME280;13449;49.374;8.584;2023-04-01T17:18:03;99353.88;;;11.09;100.00
24486;BME280;13449;49.374;8.584;2023-04-01T17:21:07;99353.06;;;11.08;100.00
24486;BME280;13449;49.374;8.584;2023-04-01T17:26:17;99364.19;;;11.10;100.00
24486;BME280;13449;49.374;8.584;2023-04-01T17:28:52;99359.75;;;11.04;100.00
24486;BME280;13449;49.374;8.584;2023-04-01T17:42:41;99384.25;;;11.05;100.00
24486;BME280;13449;49.374;8.584;2023-04-01T17:48:03;99385.72;;;10.87;100.00
24486;BME280;13449;49.374;8.584;2023-04-01T17:53:39;99394.22;;;10.96;100.00
24486;BME280;13449;49.374;8.584;2023-04-01T17:58:59;99393.81;;;10.92;100.00
24486;BME280;13449;49.374;8.584;2023-04-01T18:07:13;99406.38;;;10.77;100.00
24486;BME280;13449;49.374;8.584;2023-04-01T18:09:55;99413.66;;;10.75;100.00
24486;BME280;13449;49.374;8.584;2023-04-01T18:15:08;99414.69;;;10.67;100.00
24486;BME280;13449;49.374;8.584;2023-04-01T18:17:42;99422.78;;;10.59;100.00
24486;BME280;13449;49.374;8.584;2023-04-01T18:25:42;99435.94;;;10.66;100.00
24486;BME280;13449;49.374;8.584;2023-04-01T18:28:40;99438.78;;;10.64;100.00
24486;BME280;13449;49.374;8.584;2023-04-01T18:31:25;99441.41;;;10.58;100.00
24486;BME280;13449;49.374;8.584;2023-04-01T18:36:32;99449.69;;;10.35;100.00
24486;BME280;13449;49.374;8.584;2023-04-01T18:39:35;99451.63;;;10.19;100.00
24486;BME280;13449;49.374;8.584;2023-04-01T18:44:53;99463.97;;;10.19;100.00
24486;BME280;13449;49.374;8.584;2023-04-01T18:50:32;99474.28;;;10.14;100.00
24486;BME280;13449;49.374;8.584;2023-04-01T18:58:35;99492.56;;;9.87;100.00
24486;BME280;13449;49.374;8.584;2023-04-01T19:04:01;99491.31;;;9.76;100.00
24486;BME280;13449;49.374;8.584;2023-04-01T19:06:55;99497.25;;;9.85;100.00
24486;BME280;13449;49.374;8.584;2023-04-01T19:09:32;99504.97;;;9.93;100.00
24486;BME280;13449;49.374;8.584;2023-04-01T19:14:51;99502.50;;;9.85;100.00
24486;BME280;13449;49.374;8.584;2023-04-01T19:17:48;99510.00;;;9.88;100.00
24486;BME280;13449;49.374;8.584;2023-04-01T19:20:27;99504.72;;;9.81;100.00
24486;BME280;13449;49.374;8.584;2023-04-01T19:26:04;99504.97;;;9.93;100.00
24486;BME280;13449;49.374;8.584;2023-04-01T19:28:55;99509.00;;;9.89;100.00
24486;BME280;13449;49.374;8.584;2023-04-01T19:36:56;99503.47;;;9.84;100.00
24486;BME280;13449;49.374;8.584;2023-04-01T19:47:59;99525.63;;;9.96;100.00
24486;BME280;13449;49.374;8.584;2023-04-01T19:50:38;99530.53;;;10.06;100.00
24486;BME280;13449;49.374;8.584;2023-04-01T19:53:18;99531.69;;;9.97;100.00
24486;BME280;13449;49.374;8.584;2023-04-01T19:58:31;99539.41;;;9.98;100.00
24486;BME280;13449;49.374;8.584;2023-04-01T20:01:00;99538.97;;;9.95;100.00
24486;BME280;13449;49.374;8.584;2023-04-01T20:06:09;99544.31;;;10.08;100.00
24486;BME280;13449;49.374;8.584;2023-04-01T20:08:58;99541.75;;;10.21;100.00
24486;BME280;13449;49.374;8.584;2023-04-01T20:12:00;99547.19;;;10.20;100.00
24486;BME280;13449;49.374;8.584;2023-04-01T20:14:41;99553.00;;;10.09;100.00
24486;BME280;13449;49.374;8.584;2023-04-01T20:25:18;99556.25;;;10.11;100.00
24486;BME280;13449;49.374;8.584;2023-04-01T20:27:53;99558.25;;;10.02;100.00
24486;BME280;13449;49.374;8.584;2023-04-01T20:50:31;99582.72;;;10.02;100.00
24486;BME280;13449;49.374;8.584;2023-04-01T20:53:07;99584.16;;;10.05;100.00
24486;BME280;13449;49.374;8.584;2023-04-01T20:55:56;99593.50;;;10.07;100.00
24486;BME280;13449;49.374;8.584;2023-04-01T21:04:27;99585.69;;;9.93;100.00
24486;BME280;13449;49.374;8.584;2023-04-01T21:07:50;99590.88;;;9.79;100.00
24486;BME280;13449;49.374;8.584;2023-04-01T21:41:25;99624.53;;;9.91;100.00
24486;BME280;13449;49.374;8.584;2023-04-01T21:44:36;99624.34;;;9.92;100.00
24486;BME280;13449;49.374;8.584;2023-04-01T22:03:52;99645.16;;;9.87;100.00
24486;BME280;13449;49.374;8.584;2023-04-01T22:06:33;99648.53;;;9.81;100.00
24486;BME280;13449;49.374;8.584;2023-04-01T22:09:18;99648.69;;;9.73;100.00
24486;BME280;13449;49.374;8.584;2023-04-01T22:12:02;99648.44;;;9.68;100.00
24486;BME280;13449;49.374;8.584;2023-04-01T22:14:38;99653.94;;;9.73;100.00
24486;BME280;13449;49.374;8.584;2023-04-01T22:17:35;99649.38;;;9.81;100.00
24486;BME280;13449;49.374;8.584;2023-04-01T22:28:25;99668.06;;;9.65;100.00
24486;BME280;13449;49.374;8.584;2023-04-01T22:31:02;99662.97;;;9.64;100.00
24486;BME280;13449;49.374;8.584;2023-04-01T22:33:41;99670.50;;;9.67;100.00
24486;BME280;13449;49.374;8.584;2023-04-01T22:36:44;99678.97;;;9.62;100.00
24486;BME280;13449;49.374;8.584;2023-04-01T22:53:54;99679.38;;;9.66;100.00